createdAt,value
2022-08-24T00:01:09.046Z,91.70
2022-08-24T00:03:37.434Z,91.87
2022-08-24T00:06:05.607Z,93.65
2022-08-24T00:08:32.475Z,93.39
2022-08-24T00:11:02.202Z,92.96
2022-08-24T00:13:29.459Z,92.54
2022-08-24T00:16:00.639Z,92.64
2022-08-24T00:18:27.993Z,92.86
2022-08-24T00:20:54.841Z,92.75
2022-08-24T00:23:21.604Z,92.40
2022-08-24T00:25:48.038Z,92.55
2022-08-24T00:28:14.542Z,92.35
2022-08-24T00:30:41.017Z,92.17
2022-08-24T00:33:08.222Z,91.51
2022-08-24T00:35:34.736Z,92.46
2022-08-24T00:38:01.763Z,92.13
2022-08-24T00:40:33.858Z,91.54
2022-08-24T00:43:04.733Z,91.12
2022-08-24T00:45:40.949Z,90.77
2022-08-24T00:48:15.333Z,90.62
2022-08-24T00:50:48.162Z,90.81
2022-08-24T00:53:43.471Z,90.04
2022-08-24T00:56:16.946Z,90.66
2022-08-24T00:58:57.048Z,90.86
2022-08-24T01:01:24.935Z,91.11
2022-08-24T01:03:56.598Z,91.00
2022-08-24T01:06:24.114Z,91.36
2022-08-24T01:08:56.369Z,92.43
2022-08-24T01:11:27.665Z,93.80
2022-08-24T01:14:03.192Z,94.30
2022-08-24T01:16:48.925Z,94.53
2022-08-24T01:19:36.515Z,94.22
2022-08-24T01:22:09.427Z,94.55
2022-08-24T01:24:36.404Z,96.05
2022-08-24T01:27:03.532Z,97.46
2022-08-24T01:29:31.907Z,98.17
2022-08-24T01:32:01.699Z,97.90
2022-08-24T01:34:28.163Z,97.70
2022-08-24T01:36:56.276Z,98.21
2022-08-24T01:39:33.842Z,99.01
2022-08-24T01:42:01.830Z,98.88
2022-08-24T01:44:33.971Z,97.99
2022-08-24T01:47:01.903Z,98.26
2022-08-24T01:49:35.970Z,98.62
2022-08-24T01:52:06.423Z,98.14
2022-08-24T01:54:33.858Z,100.00
2022-08-24T01:57:00.758Z,100.00
2022-08-24T01:59:28.068Z,100.00
2022-08-24T02:02:06.365Z,100.00
2022-08-24T02:04:34.646Z,100.00
2022-08-24T02:07:01.694Z,100.00
2022-08-24T02:09:32.903Z,99.92
2022-08-24T02:12:00.041Z,99.52
2022-08-24T02:14:26.859Z,100.00
2022-08-24T02:16:58.796Z,100.00
2022-08-24T02:19:27.229Z,100.00
2022-08-24T02:21:54.118Z,100.00
2022-08-24T02:24:21.013Z,100.00
2022-08-24T02:26:47.816Z,100.00
2022-08-24T02:29:14.246Z,100.00
2022-08-24T02:31:41.000Z,100.00
2022-08-24T02:34:07.642Z,100.00
2022-08-24T02:36:34.051Z,100.00
2022-08-24T02:39:00.582Z,100.00
2022-08-24T02:41:27.205Z,100.00
2022-08-24T02:43:55.151Z,100.00
2022-08-24T02:46:24.135Z,100.00
2022-08-24T02:48:57.980Z,100.00
2022-08-24T02:51:38.882Z,100.00
2022-08-24T02:54:13.602Z,100.00
2022-08-24T02:56:40.202Z,100.00
2022-08-24T02:59:06.751Z,100.00
2022-08-24T03:01:33.437Z,100.00
2022-08-24T03:04:00.020Z,100.00
2022-08-24T03:06:26.473Z,100.00
2022-08-24T03:08:54.656Z,100.00
2022-08-24T03:11:27.407Z,100.00
2022-08-24T03:13:56.118Z,100.00
2022-08-24T03:16:22.578Z,100.00
2022-08-24T03:18:48.968Z,100.00
2022-08-24T03:21:16.275Z,100.00
2022-08-24T03:23:42.824Z,100.00
2022-08-24T03:26:09.753Z,100.00
2022-08-24T03:28:36.260Z,100.00
2022-08-24T03:31:03.207Z,100.00
2022-08-24T03:33:30.168Z,100.00
2022-08-24T03:35:59.190Z,100.00
2022-08-24T03:38:25.617Z,100.00
2022-08-24T03:40:52.123Z,100.00
2022-08-24T03:43:36.871Z,100.00
2022-08-24T03:46:07.612Z,100.00
2022-08-24T03:48:34.976Z,100.00
2022-08-24T03:51:01.913Z,100.00
2022-08-24T03:53:28.508Z,100.00
2022-08-24T03:55:54.971Z,100.00
2022-08-24T03:58:21.515Z,100.00
2022-08-24T04:00:48.043Z,100.00
2022-08-24T04:03:14.524Z,100.00
2022-08-24T04:05:42.295Z,100.00
2022-08-24T04:08:09.444Z,100.00
2022-08-24T04:10:36.406Z,100.00
2022-08-24T04:13:02.932Z,100.00
2022-08-24T04:15:32.149Z,100.00
2022-08-24T04:18:01.607Z,100.00
2022-08-24T04:20:28.722Z,100.00
2022-08-24T04:22:55.233Z,100.00
2022-08-24T04:25:25.032Z,100.00
2022-08-24T04:27:52.018Z,100.00
2022-08-24T04:30:19.008Z,100.00
2022-08-24T04:32:45.515Z,100.00
2022-08-24T04:35:12.620Z,100.00
2022-08-24T04:37:39.052Z,100.00
2022-08-24T04:40:07.512Z,100.00
2022-08-24T04:42:34.090Z,100.00
2022-08-24T04:45:00.887Z,100.00
2022-08-24T04:47:27.301Z,100.00
2022-08-24T04:49:56.871Z,100.00
2022-08-24T04:52:24.128Z,100.00
2022-08-24T04:54:50.643Z,100.00
2022-08-24T04:57:18.511Z,100.00
2022-08-24T04:59:45.420Z,100.00
2022-08-24T05:02:11.972Z,100.00
2022-08-24T05:04:38.634Z,100.00
2022-08-24T05:07:06.320Z,100.00
2022-08-24T05:09:32.958Z,100.00
2022-08-24T05:12:00.698Z,100.00
2022-08-24T05:14:29.049Z,100.00
2022-08-24T05:16:55.981Z,100.00
2022-08-24T05:19:23.907Z,100.00
2022-08-24T05:21:50.928Z,100.00
2022-08-24T05:24:19.458Z,100.00
2022-08-24T05:26:46.212Z,100.00
2022-08-24T05:29:12.815Z,100.00
2022-08-24T05:31:44.489Z,100.00
2022-08-24T05:34:13.778Z,99.04
2022-08-24T05:36:41.128Z,97.80
2022-08-24T05:39:11.744Z,95.15
2022-08-24T05:41:44.307Z,92.37
2022-08-24T05:44:12.994Z,89.14
2022-08-24T05:46:39.565Z,86.19
2022-08-24T05:49:06.316Z,83.89
2022-08-24T05:51:33.764Z,82.16
2022-08-24T05:54:00.898Z,82.88
2022-08-24T05:56:31.732Z,83.48
2022-08-24T05:58:58.852Z,84.26
2022-08-24T06:01:28.575Z,84.99
2022-08-24T06:03:56.513Z,85.43
2022-08-24T06:06:24.365Z,87.36
2022-08-24T06:08:52.393Z,88.39
2022-08-24T06:11:29.862Z,88.80
2022-08-24T06:14:01.385Z,88.36
2022-08-24T06:16:29.266Z,89.20
2022-08-24T06:18:56.364Z,88.48
2022-08-24T06:21:28.156Z,88.18
2022-08-24T06:23:56.148Z,88.62
2022-08-24T06:26:41.177Z,87.94
2022-08-24T06:29:08.649Z,88.14
2022-08-24T06:31:46.804Z,86.40
2022-08-24T06:34:15.329Z,86.61
2022-08-24T06:36:42.006Z,84.05
2022-08-24T06:39:10.224Z,83.31
2022-08-24T06:41:40.388Z,79.98
2022-08-24T06:44:08.503Z,78.57
2022-08-24T06:46:36.505Z,77.66
2022-08-24T06:49:04.051Z,72.97
2022-08-24T06:51:32.365Z,72.44
2022-08-24T06:54:02.016Z,72.00
2022-08-24T06:56:28.617Z,70.59
2022-08-24T06:58:55.398Z,70.11
2022-08-24T07:01:25.406Z,68.82
2022-08-24T07:03:55.383Z,68.04
2022-08-24T07:06:23.484Z,66.76
2022-08-24T07:08:50.815Z,66.65
2022-08-24T07:11:19.122Z,65.97
2022-08-24T07:13:47.613Z,67.00
2022-08-24T07:16:15.618Z,65.17
2022-08-24T07:18:44.996Z,64.88
2022-08-24T07:21:14.112Z,64.40
2022-08-24T07:23:41.870Z,65.10
2022-08-24T07:26:21.020Z,64.95
2022-08-24T07:28:53.668Z,63.43
2022-08-24T07:31:21.207Z,63.23
2022-08-24T07:33:47.846Z,62.31
2022-08-24T07:36:21.887Z,61.79
2022-08-24T07:38:52.277Z,61.57
2022-08-24T07:41:40.546Z,60.17
2022-08-24T07:44:06.781Z,59.04
2022-08-24T07:46:33.632Z,59.01
2022-08-24T07:49:11.642Z,57.71
2022-08-24T07:51:40.841Z,57.94
2022-08-24T07:54:14.199Z,57.65
2022-08-24T07:56:42.191Z,57.76
2022-08-24T07:59:12.999Z,55.85
2022-08-24T08:01:40.692Z,56.63
2022-08-24T08:04:08.043Z,56.11
2022-08-24T08:06:34.593Z,53.93
2022-08-24T08:09:02.633Z,54.83
2022-08-24T08:11:29.058Z,54.40
2022-08-24T08:13:55.447Z,53.26
2022-08-24T08:16:22.038Z,54.37
2022-08-24T08:18:52.381Z,56.06
2022-08-24T08:21:45.902Z,53.95
2022-08-24T08:24:15.115Z,52.07
2022-08-24T08:26:43.227Z,52.78
2022-08-24T08:29:12.936Z,52.62
2022-08-24T08:31:41.118Z,49.81
2022-08-24T08:34:09.705Z,48.99
2022-08-24T08:36:39.431Z,50.00
2022-08-24T08:39:09.198Z,49.54
2022-08-24T08:41:59.298Z,47.18
2022-08-24T08:44:38.098Z,47.41
2022-08-24T08:47:20.746Z,47.47
2022-08-24T08:50:06.031Z,47.86
2022-08-24T08:52:46.377Z,46.85
2022-08-24T08:55:38.248Z,46.84
2022-08-24T08:58:18.503Z,46.66
2022-08-24T09:01:01.650Z,46.78
2022-08-24T09:03:37.469Z,46.42
2022-08-24T09:06:32.805Z,44.92
2022-08-24T09:09:02.304Z,44.81
2022-08-24T09:11:48.222Z,44.54
2022-08-24T09:14:39.184Z,44.73
2022-08-24T09:17:20.158Z,44.31
2022-08-24T09:20:07.295Z,44.45
2022-08-24T09:22:40.975Z,44.42
2022-08-24T09:25:26.941Z,44.01
2022-08-24T09:28:14.838Z,44.44
2022-08-24T09:31:10.696Z,43.62
2022-08-24T09:33:45.586Z,43.65
2022-08-24T09:36:20.237Z,42.50
2022-08-24T09:39:14.251Z,42.47
2022-08-24T09:41:59.811Z,42.64
2022-08-24T09:45:01.985Z,42.65
2022-08-24T09:47:43.556Z,42.28
2022-08-24T09:50:46.845Z,42.29
2022-08-24T09:53:34.327Z,42.34
2022-08-24T09:56:19.421Z,41.65
2022-08-24T09:59:24.926Z,42.60
2022-08-24T10:02:28.509Z,42.10
2022-08-24T10:05:22.273Z,41.47
2022-08-24T10:08:03.483Z,41.48
2022-08-24T10:10:51.763Z,41.82
2022-08-24T10:13:36.773Z,41.42
2022-08-24T10:16:23.320Z,41.05
2022-08-24T10:18:50.283Z,40.44
2022-08-24T10:21:46.552Z,41.19
2022-08-24T10:24:30.506Z,39.60
2022-08-24T10:27:10.915Z,39.94
2022-08-24T10:29:46.397Z,38.91
2022-08-24T10:32:43.776Z,39.32
2022-08-24T10:35:15.840Z,39.00
2022-08-24T10:38:30.504Z,39.74
2022-08-24T10:41:02.926Z,38.49
2022-08-24T10:43:59.365Z,38.63
2022-08-24T10:46:26.046Z,38.59
2022-08-24T10:49:32.251Z,38.36
2022-08-24T10:52:23.167Z,38.46
2022-08-24T10:54:49.946Z,37.81
2022-08-24T10:57:43.654Z,37.69
2022-08-24T11:00:18.185Z,38.06
2022-08-24T11:03:05.159Z,38.25
2022-08-24T11:05:39.626Z,37.95
2022-08-24T11:08:07.656Z,38.26
2022-08-24T11:10:39.784Z,39.13
2022-08-24T11:13:27.217Z,37.01
2022-08-24T11:16:00.575Z,36.11
2022-08-24T11:18:46.468Z,36.63
2022-08-24T11:21:42.199Z,36.04
2022-08-24T11:24:25.662Z,36.23
2022-08-24T11:27:15.375Z,35.88
2022-08-24T11:29:54.663Z,35.90
2022-08-24T11:32:41.115Z,34.49
2022-08-24T11:35:19.804Z,34.46
2022-08-24T11:37:47.585Z,33.78
2022-08-24T11:40:16.380Z,35.03
2022-08-24T11:43:05.156Z,34.64
2022-08-24T11:45:43.290Z,35.05
2022-08-24T11:48:32.988Z,34.75
2022-08-24T11:51:09.045Z,35.51
2022-08-24T11:54:03.730Z,34.55
2022-08-24T11:56:45.704Z,34.65
2022-08-24T11:59:30.411Z,34.04
2022-08-24T12:02:04.013Z,33.82
2022-08-24T12:04:46.432Z,34.55
2022-08-24T12:07:21.975Z,33.84
2022-08-24T12:10:03.562Z,33.07
2022-08-24T12:12:54.468Z,33.59
2022-08-24T12:15:37.045Z,33.97
2022-08-24T12:18:16.451Z,33.98
2022-08-24T12:20:48.496Z,35.06
2022-08-24T12:23:26.443Z,33.36
2022-08-24T12:26:03.549Z,33.00
2022-08-24T12:28:41.574Z,32.54
2022-08-24T12:31:14.129Z,33.29
2022-08-24T12:33:47.382Z,32.77
2022-08-24T12:36:22.014Z,32.15
2022-08-24T12:39:00.081Z,33.49
2022-08-24T12:41:39.792Z,32.02
2022-08-24T12:44:12.760Z,33.09
2022-08-24T12:46:40.360Z,32.92
2022-08-24T12:49:36.331Z,33.12
2022-08-24T12:52:10.653Z,32.62
2022-08-24T12:54:53.333Z,33.01
2022-08-24T12:57:53.112Z,32.59
2022-08-24T13:00:34.825Z,32.95
2022-08-24T13:03:06.070Z,32.22
2022-08-24T13:06:00.659Z,32.90
2022-08-24T13:08:33.229Z,32.33
2022-08-24T13:11:06.109Z,32.96
2022-08-24T13:13:47.900Z,32.28
2022-08-24T13:16:49.962Z,31.35
2022-08-24T13:19:22.487Z,31.35
2022-08-24T13:22:20.016Z,31.47
2022-08-24T13:25:22.156Z,32.69
2022-08-24T13:28:02.380Z,31.88
2022-08-24T13:30:34.788Z,32.02
2022-08-24T13:33:05.833Z,31.39
2022-08-24T13:35:55.280Z,29.88
2022-08-24T13:38:42.319Z,30.36
2022-08-24T13:41:09.194Z,30.47
2022-08-24T13:43:45.659Z,31.28
2022-08-24T13:46:44.540Z,31.45
2022-08-24T13:49:46.177Z,30.47
2022-08-24T13:52:45.000Z,30.96
2022-08-24T13:55:20.354Z,30.94
2022-08-24T13:58:10.889Z,31.62
2022-08-24T14:01:05.447Z,29.37
2022-08-24T14:03:53.479Z,31.26
2022-08-24T14:06:40.375Z,30.76
2022-08-24T14:09:29.956Z,31.69
2022-08-24T14:12:14.725Z,31.42
2022-08-24T14:15:19.775Z,31.00
2022-08-24T14:18:07.698Z,30.94
2022-08-24T14:21:17.837Z,30.15
2022-08-24T14:24:17.654Z,30.86
2022-08-24T14:26:44.003Z,30.07
2022-08-24T14:29:19.331Z,29.69
2022-08-24T14:31:58.515Z,29.22
2022-08-24T14:34:26.570Z,29.66
2022-08-24T14:37:01.656Z,29.43
2022-08-24T14:39:39.963Z,29.94
2022-08-24T14:42:16.866Z,29.64
2022-08-24T14:44:43.221Z,29.16
2022-08-24T14:47:46.992Z,29.87
2022-08-24T14:50:22.454Z,29.46
2022-08-24T14:53:23.191Z,29.66
2022-08-24T14:56:10.015Z,28.99
2022-08-24T14:58:58.243Z,29.88
2022-08-24T15:01:40.339Z,28.66
2022-08-24T15:04:16.718Z,29.09
2022-08-24T15:07:20.926Z,29.57
2022-08-24T15:09:49.493Z,29.27
2022-08-24T15:12:50.149Z,29.42
2022-08-24T15:15:35.221Z,28.97
2022-08-24T15:18:01.853Z,28.21
2022-08-24T15:20:36.098Z,27.62
2022-08-24T15:23:09.662Z,28.15
2022-08-24T15:25:44.759Z,28.36
2022-08-24T15:28:24.948Z,28.14
2022-08-24T15:31:00.625Z,27.18
2022-08-24T15:33:30.057Z,27.43
2022-08-24T15:36:09.356Z,28.70
2022-08-24T15:38:38.381Z,28.84
2022-08-24T15:41:07.498Z,28.83
2022-08-24T15:43:39.131Z,28.89
2022-08-24T15:46:08.259Z,29.05
2022-08-24T15:48:35.352Z,29.04
2022-08-24T15:51:02.385Z,29.07
2022-08-24T15:53:39.110Z,29.28
2022-08-24T15:56:20.892Z,29.43
2022-08-24T15:58:48.809Z,28.93
2022-08-24T16:01:34.178Z,29.73
2022-08-24T16:04:08.866Z,29.88
2022-08-24T16:06:41.183Z,29.30
2022-08-24T16:09:22.532Z,30.54
2022-08-24T16:12:10.039Z,29.34
2022-08-24T16:14:46.894Z,30.26
2022-08-24T16:17:27.387Z,29.75
2022-08-24T16:19:58.491Z,30.74
2022-08-24T16:22:39.155Z,30.15
2022-08-24T16:25:17.624Z,30.40
2022-08-24T16:28:12.283Z,29.94
2022-08-24T16:30:56.337Z,29.63
2022-08-24T16:33:34.847Z,29.48
2022-08-24T16:36:20.365Z,30.23
2022-08-24T16:38:51.287Z,30.63
2022-08-24T16:41:21.749Z,30.53
2022-08-24T16:43:48.697Z,31.23
2022-08-24T16:46:23.503Z,29.87
2022-08-24T16:48:50.319Z,30.10
2022-08-24T16:51:16.952Z,29.73
2022-08-24T16:53:43.725Z,29.97
2022-08-24T16:56:12.557Z,30.52
2022-08-24T16:58:42.357Z,31.10
2022-08-24T17:01:11.149Z,30.49
2022-08-24T17:03:37.700Z,30.76
2022-08-24T17:06:05.065Z,30.23
2022-08-24T17:08:31.728Z,30.58
2022-08-24T17:10:58.115Z,30.45
2022-08-24T17:13:49.306Z,29.74
2022-08-24T17:16:12.496Z,30.26
2022-08-24T17:18:39.794Z,30.47
2022-08-24T17:21:06.314Z,30.68
2022-08-24T17:23:33.686Z,31.08
2022-08-24T17:26:01.920Z,31.37
2022-08-24T17:28:29.148Z,30.52
2022-08-24T17:30:55.539Z,31.33
2022-08-24T17:33:21.913Z,31.13
2022-08-24T17:35:54.253Z,31.78
2022-08-24T17:38:21.266Z,31.94
2022-08-24T17:40:47.657Z,31.27
2022-08-24T17:43:16.046Z,31.31
2022-08-24T17:45:45.085Z,31.23
2022-08-24T17:48:16.329Z,31.49
2022-08-24T17:50:42.730Z,31.85
2022-08-24T17:53:09.438Z,31.34
2022-08-24T17:55:35.930Z,31.56
2022-08-24T17:58:02.975Z,32.90
2022-08-24T18:00:29.421Z,33.46
2022-08-24T18:02:55.910Z,34.39
2022-08-24T18:05:22.330Z,35.83
2022-08-24T18:07:55.308Z,36.56
2022-08-24T18:10:32.068Z,36.54
2022-08-24T18:13:03.481Z,37.02
2022-08-24T18:15:35.486Z,37.40
2022-08-24T18:18:06.470Z,38.40
2022-08-24T18:20:36.260Z,38.83
2022-08-24T18:23:03.327Z,39.12
2022-08-24T18:25:37.684Z,39.78
2022-08-24T18:28:04.227Z,40.39
2022-08-24T18:30:31.949Z,40.46
2022-08-24T18:33:04.741Z,40.96
2022-08-24T18:35:32.502Z,40.94
2022-08-24T18:37:59.162Z,41.45
2022-08-24T18:40:29.178Z,41.70
2022-08-24T18:43:01.685Z,42.13
2022-08-24T18:45:31.576Z,43.22
2022-08-24T18:47:59.792Z,43.29
2022-08-24T18:50:28.990Z,43.54
2022-08-24T18:52:56.371Z,43.02
2022-08-24T18:55:24.090Z,44.00
2022-08-24T18:57:51.462Z,43.93
2022-08-24T19:00:18.291Z,43.80
2022-08-24T19:02:45.002Z,44.42
2022-08-24T19:05:17.458Z,44.49
2022-08-24T19:07:47.007Z,44.78
2022-08-24T19:10:17.307Z,45.17
2022-08-24T19:12:47.864Z,44.99
2022-08-24T19:15:35.894Z,44.85
2022-08-24T19:18:05.384Z,44.60
2022-08-24T19:20:32.822Z,44.78
2022-08-24T19:23:08.416Z,44.67
2022-08-24T19:25:36.050Z,45.17
2022-08-24T19:28:03.156Z,45.51
2022-08-24T19:30:29.652Z,45.45
2022-08-24T19:32:57.634Z,45.75
2022-08-24T19:35:24.166Z,45.50
2022-08-24T19:37:50.769Z,45.29
2022-08-24T19:40:18.588Z,45.89
2022-08-24T19:42:49.630Z,46.02
2022-08-24T19:45:37.151Z,46.72
2022-08-24T19:48:04.585Z,47.02
2022-08-24T19:50:35.528Z,47.36
2022-08-24T19:53:04.430Z,47.41
2022-08-24T19:55:31.592Z,48.03
2022-08-24T19:58:09.502Z,47.85
2022-08-24T20:00:58.024Z,48.55
2022-08-24T20:03:24.836Z,48.97
2022-08-24T20:05:51.389Z,49.50
2022-08-24T20:08:19.469Z,49.67
2022-08-24T20:10:45.930Z,49.99
2022-08-24T20:13:12.408Z,50.55
2022-08-24T20:15:38.946Z,50.62
2022-08-24T20:18:05.577Z,50.39
2022-08-24T20:20:32.855Z,50.79
2022-08-24T20:23:06.040Z,51.33
2022-08-24T20:25:39.230Z,51.57
2022-08-24T20:28:28.295Z,51.79
2022-08-24T20:30:54.993Z,51.85
2022-08-24T20:33:23.751Z,51.93
2022-08-24T20:35:50.760Z,51.66
2022-08-24T20:38:20.173Z,52.20
2022-08-24T20:40:47.819Z,52.55
2022-08-24T20:43:14.584Z,52.88
2022-08-24T20:45:41.627Z,53.41
2022-08-24T20:48:12.243Z,53.85
2022-08-24T20:50:43.191Z,53.89
2022-08-24T20:53:11.322Z,53.38
2022-08-24T20:55:39.799Z,53.65
2022-08-24T20:58:06.502Z,53.54
2022-08-24T21:00:33.632Z,53.08
2022-08-24T21:03:00.447Z,53.50
2022-08-24T21:05:26.928Z,53.64
2022-08-24T21:07:55.628Z,53.33
2022-08-24T21:10:26.519Z,53.26
2022-08-24T21:12:53.643Z,53.58
2022-08-24T21:15:21.366Z,53.41
2022-08-24T21:17:47.999Z,53.91
2022-08-24T21:20:16.490Z,54.96
2022-08-24T21:22:43.425Z,54.69
2022-08-24T21:25:10.560Z,55.49
2022-08-24T21:27:39.693Z,55.42
2022-08-24T21:30:08.723Z,56.19
2022-08-24T21:32:53.945Z,56.18
2022-08-24T21:35:20.682Z,56.84
2022-08-24T21:37:47.212Z,57.95
2022-08-24T21:40:14.013Z,57.17
2022-08-24T21:42:40.497Z,56.79
2022-08-24T21:45:07.463Z,56.29
2022-08-24T21:47:34.092Z,55.45
2022-08-24T21:50:00.619Z,55.14
2022-08-24T21:52:27.109Z,55.06
2022-08-24T21:54:54.584Z,54.75
2022-08-24T21:57:21.528Z,55.16
2022-08-24T21:59:50.708Z,55.19
2022-08-24T22:02:20.583Z,55.63
2022-08-24T22:04:47.886Z,55.50
2022-08-24T22:07:25.517Z,55.55
2022-08-24T22:09:52.071Z,55.39
2022-08-24T22:12:18.701Z,54.98
2022-08-24T22:14:45.367Z,55.35
2022-08-24T22:17:11.891Z,54.99
2022-08-24T22:19:38.396Z,55.03
2022-08-24T22:22:05.331Z,54.45
2022-08-24T22:24:32.374Z,55.05
2022-08-24T22:26:58.890Z,55.08
2022-08-24T22:29:25.591Z,54.50
2022-08-24T22:31:52.029Z,54.67
2022-08-24T22:34:19.679Z,55.15
2022-08-24T22:36:48.187Z,55.26
2022-08-24T22:39:14.744Z,54.60
2022-08-24T22:41:41.185Z,54.66
2022-08-24T22:44:20.788Z,54.61
2022-08-24T22:46:56.054Z,54.71
2022-08-24T22:49:26.499Z,54.64
2022-08-24T22:51:52.969Z,54.50
2022-08-24T22:54:21.302Z,54.33
2022-08-24T22:56:51.687Z,53.88
2022-08-24T22:59:28.377Z,54.41
2022-08-24T23:01:56.931Z,54.63
2022-08-24T23:04:26.831Z,54.47
2022-08-24T23:06:54.888Z,55.03
2022-08-24T23:09:21.909Z,56.55
2022-08-24T23:11:48.283Z,56.93
2022-08-24T23:14:15.500Z,58.44
2022-08-24T23:16:49.803Z,59.06
2022-08-24T23:19:36.815Z,58.55
2022-08-24T23:22:05.004Z,59.27
2022-08-24T23:24:31.813Z,59.01
2022-08-24T23:26:58.729Z,59.02
2022-08-24T23:29:25.611Z,58.83
2022-08-24T23:31:53.571Z,58.27
2022-08-24T23:34:21.499Z,58.54
2022-08-24T23:36:48.500Z,57.87
2022-08-24T23:39:14.972Z,57.58
2022-08-24T23:41:44.245Z,56.66
2022-08-24T23:44:18.633Z,57.02
2022-08-24T23:46:45.191Z,56.85
2022-08-24T23:49:13.369Z,57.66
2022-08-24T23:51:40.139Z,58.25
2022-08-24T23:54:08.409Z,58.00
2022-08-24T23:56:36.994Z,57.75
2022-08-24T23:59:09.455Z,57.77
